Time;durP1;ratioP1;P1;durP2;ratioP2;P2;SDS_P1;SDS_P2;PMS_P1;PMS_P2;Temp;Humidity;BMP_temperature;BMP_pressure;BME280_temperature;BME280_humidity;BME280_pressure;Samples;Min_cycle;Max_cycle;Signal;HPM_P1;HPM_P2
2022/07/02 00:01:53;;;;;;;;;15.00;15.00;;;;;25.84;60.98;99559.84;6311103;20;2483609;-58
2022/07/02 00:04:34;;;;;;;;;12.00;12.00;;;;;25.93;59.80;99558.66;6310322;20;3529456;-55
2022/07/02 00:07:04;;;;;;;;;12.00;11.00;;;;;25.91;59.61;99558.03;6284070;20;2492004;-55
2022/07/02 00:09:33;;;;;;;;;10.00;10.00;;;;;25.86;59.95;99557.75;6310913;20;3510645;-58
2022/07/02 00:12:02;;;;;;;;;11.67;11.00;;;;;25.82;59.22;99561.91;6309326;20;3518025;-59
2022/07/02 00:14:34;;;;;;;;;11.00;10.00;;;;;25.87;59.37;99573.19;6279590;20;3514844;-56
2022/07/02 00:17:03;;;;;;;;;13.67;11.00;;;;;25.79;58.68;99567.81;6317598;20;2787753;-59
2022/07/02 00:19:35;;;;;;;;;12.00;12.00;;;;;25.79;59.08;99576.91;6316900;20;3510670;-58
2022/07/02 00:22:05;;;;;;;;;12.00;12.00;;;;;25.72;59.35;99562.22;6280037;20;3520165;-58
2022/07/02 00:24:39;;;;;;;;;10.00;10.00;;;;;25.73;58.67;99563.09;6316972;20;2777425;-56
2022/07/02 00:27:13;;;;;;;;;10.00;10.00;;;;;25.71;58.75;99565.19;6312622;20;3502407;-56
2022/07/02 00:29:58;;;;;;;;;10.00;10.00;;;;;25.63;58.92;99556.00;6321427;20;2790929;-57
2022/07/02 00:32:36;;;;;;;;;8.67;8.67;;;;;25.49;58.58;99545.91;6324050;20;2750366;-58
2022/07/02 00:35:13;;;;;;;;;11.00;8.33;;;;;25.60;59.11;99547.31;6323175;20;2767096;-59
2022/07/02 00:37:42;;;;;;;;;14.00;12.00;;;;;25.50;58.92;99542.09;6321089;20;2793109;-58
2022/07/02 00:40:10;;;;;;;;;10.33;8.00;;;;;25.51;58.24;99542.94;6316491;20;2750310;-58
2022/07/02 00:42:40;;;;;;;;;10.00;9.33;;;;;25.38;58.58;99540.91;6316243;20;3492040;-58
2022/07/02 00:45:10;;;;;;;;;11.33;10.33;;;;;25.39;58.27;99529.72;6315352;20;3514835;-58
2022/07/02 00:47:41;;;;;;;;;12.67;12.67;;;;;25.49;58.57;99536.78;6319899;20;2483607;-57
2022/07/02 00:50:10;;;;;;;;;49.33;40.67;;;;;25.36;58.08;99534.78;6317326;20;3598213;-54
2022/07/02 00:52:38;;;;;;;;;22.67;18.67;;;;;25.29;58.39;99551.16;6285693;20;3577473;-58
2022/07/02 00:55:08;;;;;;;;;30.33;24.33;;;;;25.31;58.56;99551.00;6286119;20;3599497;-56
2022/07/02 00:57:36;;;;;;;;;62.67;45.33;;;;;25.34;58.54;99561.59;6281946;20;1904400;-58
2022/07/02 01:00:08;;;;;;;;;34.00;27.50;;;;;25.13;58.55;99562.34;6318270;20;4379016;-59
2022/07/02 01:02:38;;;;;;;;;57.50;44.00;;;;;25.18;58.33;99558.03;6317728;20;3613823;-58
2022/07/02 01:05:10;;;;;;;;;62.00;46.33;;;;;25.11;58.08;99554.28;6313992;20;3631574;-58
2022/07/02 01:07:47;;;;;;;;;23.67;23.33;;;;;25.01;58.76;99541.91;6280890;20;3566918;-58
2022/07/02 01:10:18;;;;;;;;;35.50;32.00;;;;;24.93;58.34;99545.59;6320042;20;3604434;-58
2022/07/02 01:12:50;;;;;;;;;15.00;12.00;;;;;25.03;58.54;99532.44;6312258;20;2798324;-55
2022/07/02 01:15:18;;;;;;;;;10.67;10.00;;;;;24.97;57.93;99524.97;6284715;20;2794220;-56
2022/07/02 01:17:47;;;;;;;;;13.00;11.67;;;;;24.98;58.13;99523.91;6315024;20;3514834;-59
2022/07/02 01:20:15;;;;;;;;;9.33;9.33;;;;;24.92;58.26;99527.44;6316578;20;2753367;-60
2022/07/02 01:22:52;;;;;;;;;7.67;7.67;;;;;24.95;57.90;99527.03;6312146;20;2746131;-60
2022/07/02 01:25:22;;;;;;;;;11.00;10.00;;;;;24.92;58.58;99521.94;6314412;20;3508604;-59
2022/07/02 01:27:52;;;;;;;;;11.20;10.20;;;;;24.83;58.86;99536.78;6337816;20;2784665;-60
2022/07/02 01:30:20;;;;;;;;;10.00;8.00;;;;;24.84;58.25;99528.38;6285140;20;2759742;-62
2022/07/02 01:32:50;;;;;;;;;9.00;9.00;;;;;24.79;59.19;99527.25;6341025;20;2744037;-60
2022/07/02 01:35:18;;;;;;;;;9.00;9.00;;;;;24.65;59.58;99521.56;6285882;20;2752362;-59
2022/07/02 01:37:49;;;;;;;;;10.00;10.00;;;;;24.68;59.24;99523.94;6339665;20;2788984;-63
2022/07/02 01:40:18;;;;;;;;;9.33;8.00;;;;;24.70;59.09;99519.13;6321553;20;2749239;-63
2022/07/02 01:42:47;;;;;;;;;9.60;7.80;;;;;24.55;59.22;99510.03;6339967;20;2753364;-59
2022/07/02 01:45:16;;;;;;;;;8.67;8.67;;;;;24.70;59.12;99512.78;6284935;20;2745060;-60
2022/07/02 01:47:44;;;;;;;;;8.33;7.00;;;;;24.57;59.69;99529.91;6318322;20;2738790;-61
2022/07/02 01:50:14;;;;;;;;;7.00;5.67;;;;;24.59;59.16;99525.06;6317710;20;2743003;-60
2022/07/02 01:52:42;;;;;;;;;9.00;9.00;;;;;24.70;58.81;99534.75;6316075;20;2750280;-61
2022/07/02 01:55:11;;;;;;;;;9.00;9.00;;;;;24.55;59.95;99540.22;6313429;20;2771169;-60
2022/07/02 01:57:39;;;;;;;;;7.33;7.33;;;;;24.50;60.05;99550.91;6317145;20;2750277;-60
2022/07/02 02:00:12;;;;;;;;;7.67;7.67;;;;;24.42;59.79;99564.69;6316904;20;2748194;-61
2022/07/02 02:02:41;;;;;;;;;9.00;9.00;;;;;24.47;59.83;99563.13;6312819;20;2757012;-59
2022/07/02 02:05:10;;;;;;;;;5.00;5.00;;;;;24.48;59.16;99552.97;6341992;20;2740070;-63
2022/07/02 02:07:39;;;;;;;;;9.33;9.33;;;;;24.37;59.41;99553.41;6311721;20;3492934;-61
2022/07/02 02:10:09;;;;;;;;;9.00;9.00;;;;;24.33;59.99;99561.19;6324402;20;2749293;-60
2022/07/02 02:12:38;;;;;;;;;6.60;6.60;;;;;24.38;59.30;99564.22;6341093;20;2737827;-61
2022/07/02 02:15:08;;;;;;;;;7.25;7.00;;;;;24.29;60.23;99560.69;6340577;20;2737876;-60
2022/07/02 02:17:38;;;;;;;;;7.60;7.60;;;;;24.30;59.87;99578.00;6342037;20;2746089;-60
2022/07/02 02:20:08;;;;;;;;;9.33;9.33;;;;;24.25;59.85;99585.94;6281986;20;3478355;-60
2022/07/02 02:22:36;;;;;;;;;9.00;7.00;;;;;24.23;60.42;99594.38;6324560;20;2732585;-60
2022/07/02 02:25:06;;;;;;;;;9.20;6.60;;;;;24.11;59.71;99576.63;6343300;20;2740053;-61
2022/07/02 02:27:36;;;;;;;;;9.00;7.40;;;;;24.01;60.15;99567.78;6308615;20;2733599;-60
2022/07/02 02:30:06;;;;;;;;;8.67;7.67;;;;;24.06;60.50;99576.31;6318268;20;2739843;-58
2022/07/02 02:32:36;;;;;;;;;10.00;9.00;;;;;23.97;60.46;99567.31;6321734;20;2766285;-60
2022/07/02 02:35:07;;;;;;;;;8.00;8.00;;;;;24.06;60.44;99570.84;6340897;20;2742102;-59
2022/07/02 02:37:36;;;;;;;;;9.00;9.00;;;;;23.93;60.88;99555.00;6309386;20;2743061;-61
2022/07/02 02:40:06;;;;;;;;;9.33;8.00;;;;;23.97;60.84;99542.63;6283795;20;2760710;-59
2022/07/02 02:42:34;;;;;;;;;7.33;7.33;;;;;23.96;60.25;99548.28;6313796;20;2742070;-59
2022/07/02 02:45:05;;;;;;;;;6.60;6.60;;;;;23.86;60.97;99560.38;6341188;20;2734806;-58
2022/07/02 02:47:34;;;;;;;;;7.80;7.80;;;;;23.87;61.11;99566.72;6306721;20;2754448;-59
2022/07/02 02:50:05;;;;;;;;;9.00;7.20;;;;;23.74;61.56;99553.63;6310708;20;2748195;-61
2022/07/02 02:52:33;;;;;;;;;8.33;6.33;;;;;23.54;62.28;99558.72;6313631;20;2746097;-59
2022/07/02 02:55:02;;;;;;;;;6.00;6.00;;;;;23.59;62.41;99563.63;6310126;20;2736974;-60
2022/07/02 02:57:32;;;;;;;;;7.20;7.20;;;;;23.56;62.55;99558.50;6341370;20;2739894;-60
2022/07/02 03:00:03;;;;;;;;;8.60;7.60;;;;;23.59;63.19;99552.66;6308583;20;2750308;-60
2022/07/02 03:02:31;;;;;;;;;8.00;8.00;;;;;23.42;63.82;99543.69;6280665;20;2733634;-62
2022/07/02 03:05:01;;;;;;;;;7.00;7.00;;;;;23.18;64.08;99536.47;6338224;20;2739857;-60
2022/07/02 03:07:31;;;;;;;;;8.80;8.00;;;;;23.26;64.24;99547.38;6306857;20;2752364;-59
2022/07/02 03:10:00;;;;;;;;;9.20;8.00;;;;;23.31;64.62;99549.59;6305261;20;2748224;-59
2022/07/02 03:12:30;;;;;;;;;9.00;7.80;;;;;23.33;64.43;99563.94;6307576;20;2759639;-60
2022/07/02 03:14:58;;;;;;;;;7.00;7.00;;;;;23.33;64.60;99575.78;6284019;20;2737942;-60
2022/07/02 03:17:27;;;;;;;;;8.00;7.00;;;;;23.06;65.64;99581.72;6311594;20;2742996;-59
2022/07/02 03:19:56;;;;;;;;;7.40;6.80;;;;;23.07;66.06;99589.78;6336971;20;2737893;-65
2022/07/02 03:22:26;;;;;;;;;7.00;6.80;;;;;22.97;66.11;99594.59;6337795;20;2735689;-65
2022/07/02 03:24:56;;;;;;;;;6.40;6.00;;;;;22.88;66.96;99599.22;6308157;20;2746084;-63
2022/07/02 03:27:25;;;;;;;;;7.00;4.00;;;;;22.67;67.78;99601.66;6303224;20;2754415;-61
2022/07/02 03:29:55;;;;;;;;;5.50;5.50;;;;;22.71;67.87;99613.97;6305985;20;2620056;-61
2022/07/02 03:32:29;;;;;;;;;6.40;6.40;;;;;22.43;68.86;99619.81;6336344;20;2740907;-63
2022/07/02 03:34:58;;;;;;;;;4.60;4.60;;;;;22.37;69.64;99616.94;6339268;20;2747151;-61
2022/07/02 03:37:28;;;;;;;;;6.20;6.20;;;;;22.32;69.44;99615.56;6305112;20;2740901;-60
2022/07/02 03:39:58;;;;;;;;;4.60;4.40;;;;;22.41;69.26;99623.75;6340055;20;2747252;-58
2022/07/02 03:42:26;;;;;;;;;4.33;4.33;;;;;22.21;70.33;99631.47;6322351;20;2744060;-59
2022/07/02 03:44:56;;;;;;;;;7.80;5.20;;;;;22.28;69.54;99640.72;6337140;20;2731516;-58
2022/07/02 03:47:24;;;;;;;;;3.33;2.33;;;;;22.23;70.37;99665.84;6312772;20;2731546;-54
2022/07/02 03:49:54;;;;;;;;;4.20;3.20;;;;;22.30;69.89;99683.28;6335884;20;2752353;-58
2022/07/02 03:52:23;;;;;;;;;5.80;5.00;;;;;22.36;69.09;99698.16;6312057;20;2748199;-58
2022/07/02 03:54:54;;;;;;;;;4.60;4.60;;;;;22.20;69.25;99689.94;6312872;20;2746236;-59
2022/07/02 03:57:24;;;;;;;;;4.60;4.60;;;;;22.26;69.65;99689.25;6306810;20;2746302;-59
2022/07/02 03:59:53;;;;;;;;;4.60;3.80;;;;;22.39;69.42;99686.88;6312016;20;2745108;-55
2022/07/02 04:02:23;;;;;;;;;4.20;4.20;;;;;22.05;70.56;99706.97;6345246;20;2745083;-50
2022/07/02 04:04:53;;;;;;;;;4.20;4.20;;;;;22.03;70.86;99709.00;6343309;20;2742996;-49
2022/07/02 04:07:22;;;;;;;;;4.80;4.80;;;;;22.10;70.90;99725.63;6340460;20;2737775;-55
2022/07/02 04:09:52;;;;;;;;;5.20;4.40;;;;;22.10;70.61;99739.28;6313671;20;2740977;-53
2022/07/02 04:12:21;;;;;;;;;3.80;3.80;;;;;22.23;70.55;99747.03;6340619;20;2755494;-51
2022/07/02 04:14:51;;;;;;;;;4.20;3.80;;;;;22.29;70.16;99769.09;6312393;20;2733707;-52
2022/07/02 04:17:19;;;;;;;;;4.67;4.67;;;;;22.11;70.51;99782.00;6319899;20;2748199;-50
2022/07/02 04:19:48;;;;;;;;;3.00;3.00;;;;;22.22;70.82;99802.75;6320468;20;2755591;-48
2022/07/02 04:22:17;;;;;;;;;4.75;4.00;;;;;22.47;69.07;99809.16;6341754;20;2055579;-51
2022/07/02 04:24:47;;;;;;;;;4.00;4.00;;;;;22.47;69.83;99815.47;6344442;20;2751303;-48
2022/07/02 04:27:18;;;;;;;;;2.80;2.80;;;;;22.45;70.02;99813.94;6308155;20;2752466;-50
2022/07/02 04:29:48;;;;;;;;;6.20;5.00;;;;;22.44;69.43;99810.34;6308980;20;2747166;-48
2022/07/02 04:32:17;;;;;;;;;1.00;1.00;;;;;22.45;69.35;99816.66;6312883;20;2717007;-50
2022/07/02 04:34:46;;;;;;;;;3.00;3.00;;;;;22.76;68.00;99819.63;6320302;20;2750341;-46
2022/07/02 04:37:15;;;;;;;;;3.40;3.00;;;;;22.78;67.68;99828.53;6340035;20;2734626;-49
2022/07/02 04:39:45;;;;;;;;;4.00;4.00;;;;;22.97;67.63;99827.38;6342686;20;2745052;-50
2022/07/02 04:42:15;;;;;;;;;4.20;4.20;;;;;22.92;67.31;99837.94;6343377;20;2756504;-51
2022/07/02 04:44:44;;;;;;;;;3.60;3.60;;;;;22.93;67.83;99832.31;6308420;20;2756496;-52
2022/07/02 04:47:14;;;;;;;;;2.80;2.80;;;;;23.08;66.44;99854.41;6309249;20;2737758;-56
2022/07/02 04:49:44;;;;;;;;;3.00;3.00;;;;;23.19;66.52;99869.63;6341388;20;2748183;-51
2022/07/02 04:52:13;;;;;;;;;4.00;4.00;;;;;23.10;65.78;99870.69;6310256;20;2734659;-48
2022/07/02 04:54:42;;;;;;;;;5.00;4.00;;;;;23.21;65.92;99857.47;6317730;20;2751415;-48
2022/07/02 04:57:11;;;;;;;;;4.00;4.00;;;;;23.21;65.97;99862.13;6317436;20;2730473;-51
2022/07/02 04:59:44;;;;;;;;;3.60;3.60;;;;;23.33;65.75;99854.38;6341012;20;2733582;-48
2022/07/02 05:02:13;;;;;;;;;6.00;6.00;;;;;23.48;65.82;99860.03;6338847;20;2737790;-49
2022/07/02 05:04:43;;;;;;;;;5.80;4.00;;;;;23.50;64.97;99866.19;6339435;20;2751366;-50
2022/07/02 05:07:13;;;;;;;;;6.00;5.00;;;;;23.51;65.01;99857.78;6309333;20;2746137;-48
2022/07/02 05:09:50;;;;;;;;;4.00;4.00;;;;;23.71;64.76;99861.00;6343108;20;2746104;-52
2022/07/02 05:12:20;;;;;;;;;2.20;2.20;;;;;23.89;64.79;99869.06;6310412;20;2756521;-50
2022/07/02 05:14:49;;;;;;;;;5.60;4.40;;;;;24.12;64.05;99865.53;6310966;20;2741919;-48
2022/07/02 05:17:19;;;;;;;;;6.00;4.80;;;;;24.40;63.07;99863.19;6308286;20;2742626;-51
2022/07/02 05:19:48;;;;;;;;;6.00;4.60;;;;;24.38;62.20;99859.75;6342285;20;2742043;-52
2022/07/02 05:22:18;;;;;;;;;5.00;4.20;;;;;24.44;62.55;99864.53;6309954;20;2740863;-51
2022/07/02 05:24:47;;;;;;;;;4.80;4.80;;;;;24.25;61.63;99855.72;6307328;20;2752342;-55
2022/07/02 05:27:16;;;;;;;;;5.00;5.00;;;;;24.18;62.31;99854.72;6285981;20;2737855;-56
2022/07/02 05:29:45;;;;;;;;;5.00;5.00;;;;;24.54;61.72;99848.75;6340975;20;2742949;-49
2022/07/02 05:32:17;;;;;;;;;4.20;4.20;;;;;24.77;60.94;99854.22;6338951;20;2745050;-49
2022/07/02 05:34:47;;;;;;;;;5.00;5.00;;;;;24.80;61.00;99853.00;6310271;20;2748229;-48
2022/07/02 05:37:16;;;;;;;;;6.00;6.00;;;;;24.60;61.07;99853.50;6311430;20;2742986;-51
2022/07/02 05:39:46;;;;;;;;;8.20;5.60;;;;;24.74;61.12;99854.59;6308876;20;2737751;-52
2022/07/02 05:42:15;;;;;;;;;5.00;5.00;;;;;25.05;60.03;99857.28;6309272;20;2750292;-51
2022/07/02 05:44:44;;;;;;;;;4.67;4.67;;;;;25.50;58.58;99869.28;6284225;20;2747179;-49
2022/07/02 05:47:13;;;;;;;;;5.40;5.40;;;;;25.58;58.82;99869.19;6339818;20;2738942;-47
2022/07/02 05:49:43;;;;;;;;;5.80;5.80;;;;;25.22;59.45;99868.16;6311406;20;2739902;-48
2022/07/02 05:52:14;;;;;;;;;6.00;5.00;;;;;25.37;58.72;99871.81;6307345;20;2741002;-52
2022/07/02 05:54:45;;;;;;;;;7.20;5.60;;;;;25.27;59.03;99865.72;6312759;20;2746117;-53
2022/07/02 05:57:14;;;;;;;;;6.00;6.00;;;;;25.84;58.07;99878.94;6306145;20;2733593;-50
2022/07/02 05:59:44;;;;;;;;;6.20;6.20;;;;;25.79;58.37;99878.63;6310952;20;2740900;-53
2022/07/02 06:02:13;;;;;;;;;5.00;5.00;;;;;26.25;57.20;99876.56;6309906;20;2748287;-52
2022/07/02 06:04:43;;;;;;;;;6.80;6.00;;;;;26.23;57.29;99875.06;6306517;20;2740915;-53
2022/07/02 06:09:59;;;;;;;;;6.33;6.00;;;;;26.58;55.84;99884.41;6318846;20;2736713;-48
2022/07/02 06:12:29;;;;;;;;;6.40;6.40;;;;;26.18;57.34;99885.78;6340740;20;2744039;-51
2022/07/02 06:14:58;;;;;;;;;4.80;4.80;;;;;26.23;56.56;99880.56;6307328;20;2737741;-56
2022/07/02 06:17:27;;;;;;;;;6.00;5.00;;;;;26.48;56.72;99881.06;6283497;20;2744088;-47
2022/07/02 06:19:56;;;;;;;;;6.00;6.00;;;;;26.76;55.55;99884.00;6341255;20;2743998;-55
2022/07/02 06:22:26;;;;;;;;;6.00;4.00;;;;;26.96;55.12;99889.69;6285530;20;2745168;-51
2022/07/02 06:24:56;;;;;;;;;6.00;6.00;;;;;26.81;54.84;99892.53;6340635;20;2737753;-53
2022/07/02 06:27:24;;;;;;;;;5.00;5.00;;;;;27.30;54.17;99897.28;6287777;20;2749322;-50
2022/07/02 06:29:53;;;;;;;;;8.33;6.00;;;;;27.50;53.51;99902.13;6319953;20;2746127;-52
2022/07/02 06:32:23;;;;;;;;;5.20;5.20;;;;;27.31;53.35;99907.28;6346710;20;2748213;-50
2022/07/02 06:34:52;;;;;;;;;7.40;7.40;;;;;27.27;53.19;99914.22;6313096;20;2733604;-52
2022/07/02 06:37:21;;;;;;;;;5.67;5.67;;;;;27.56;51.96;99909.59;6286174;20;2733610;-52
2022/07/02 06:39:50;;;;;;;;;7.00;7.00;;;;;27.51;52.72;99909.34;6321928;20;2737746;-50
2022/07/02 06:42:19;;;;;;;;;7.00;5.67;;;;;27.59;52.43;99911.94;6327245;20;2736729;-45
2022/07/02 06:44:51;;;;;;;;;5.67;5.67;;;;;28.00;51.32;99903.81;6318821;20;2737759;-50
2022/07/02 06:47:27;;;;;;;;;8.00;6.67;;;;;28.43;50.66;99908.28;6316841;20;2748285;-49
2022/07/02 06:49:58;;;;;;;;;6.33;6.33;;;;;28.79;50.48;99904.44;6318810;20;2737804;-46
2022/07/02 06:52:29;;;;;;;;;6.60;6.60;;;;;29.07;49.45;99909.88;6342562;20;2734743;-52
2022/07/02 06:54:58;;;;;;;;;11.00;7.67;;;;;28.57;49.20;99915.63;6286825;20;2755484;-49
2022/07/02 06:57:26;;;;;;;;;6.67;6.00;;;;;28.87;49.13;99909.75;6324702;20;2746085;-49
2022/07/02 06:59:55;;;;;;;;;9.00;7.00;;;;;28.85;48.55;99912.72;6319879;20;2731543;-49
2022/07/02 07:02:24;;;;;;;;;5.40;5.40;;;;;28.66;49.55;99914.38;6342920;20;2737812;-50
2022/07/02 07:04:53;;;;;;;;;6.67;5.67;;;;;29.39;48.34;99924.78;6318813;20;2742069;-48
2022/07/02 07:07:27;;;;;;;;;6.00;4.67;;;;;29.30;48.68;99926.03;6318048;20;2744082;-56
2022/07/02 07:09:56;;;;;;;;;5.33;5.33;;;;;29.87;47.27;99919.06;6319311;20;2739891;-51
2022/07/02 07:12:25;;;;;;;;;5.67;5.67;;;;;29.96;47.17;99923.31;6320026;20;2746121;-49
2022/07/02 07:14:53;;;;;;;;;8.67;8.33;;;;;29.86;46.94;99922.91;6324270;20;2747173;-52
2022/07/02 07:17:21;;;;;;;;;7.00;7.00;;;;;30.05;47.01;99923.94;6311706;20;2741939;-51
2022/07/02 07:19:50;;;;;;;;;9.00;9.00;;;;;30.36;46.22;99928.81;6325774;20;2753617;-52
2022/07/02 07:22:18;;;;;;;;;7.00;7.00;;;;;30.38;45.82;99934.94;6316521;20;2754422;-50
2022/07/02 07:24:47;;;;;;;;;6.67;6.67;;;;;30.18;46.09;99936.91;6316237;20;2740984;-54
2022/07/02 07:27:15;;;;;;;;;7.33;6.00;;;;;30.61;45.44;99942.75;6322312;20;2739887;-52
2022/07/02 07:29:44;;;;;;;;;8.33;7.33;;;;;30.98;45.29;99950.53;6318355;20;2742047;-49
2022/07/02 07:32:12;;;;;;;;;9.00;6.33;;;;;30.98;44.62;99958.84;6317249;20;2736711;-58
2022/07/02 07:34:42;;;;;;;;;7.00;7.00;;;;;31.28;43.41;99959.97;6318290;20;2734743;-58
2022/07/02 07:37:12;;;;;;;;;10.00;7.00;;;;;30.45;46.15;99950.72;6321547;20;2761711;-54
2022/07/02 07:39:41;;;;;;;;;8.00;6.33;;;;;30.66;45.57;99952.38;6316645;20;2747149;-53
2022/07/02 07:42:09;;;;;;;;;9.67;9.67;;;;;31.09;45.60;99958.13;6315799;20;3479382;-45
2022/07/02 07:44:38;;;;;;;;;9.33;9.33;;;;;30.66;46.56;99955.97;6317427;20;2755652;-54
2022/07/02 07:47:07;;;;;;;;;10.00;10.00;;;;;31.04;45.46;99956.06;6317619;20;2473149;-47
2022/07/02 07:49:36;;;;;;;;;12.00;12.00;;;;;30.74;46.41;99960.44;6302453;20;3524270;-51
2022/07/02 07:52:05;;;;;;;;;9.00;9.00;;;;;30.90;45.61;99959.09;6279764;20;3483999;-60
2022/07/02 07:54:34;;;;;;;;;12.67;12.67;;;;;31.76;44.49;99964.13;6312198;20;3531533;-50
2022/07/02 07:57:03;;;;;;;;;14.33;14.33;;;;;31.39;44.82;99968.69;6286225;20;3534740;-49
2022/07/02 07:59:31;;;;;;;;;14.00;14.00;;;;;31.10;45.85;99962.63;6317628;20;3532514;-47
2022/07/02 08:02:03;;;;;;;;;12.50;12.50;;;;;30.76;45.90;99959.13;6341697;20;3529419;-44
2022/07/02 08:04:32;;;;;;;;;15.00;15.00;;;;;31.06;45.71;99959.44;6312445;20;2801468;-47
2022/07/02 08:07:00;;;;;;;;;13.00;11.00;;;;;31.02;45.17;99965.66;6283313;20;2483598;-48
2022/07/02 08:09:29;;;;;;;;;11.67;11.67;;;;;31.88;43.84;99967.84;6315869;20;2483599;-52
2022/07/02 08:11:57;;;;;;;;;12.33;10.00;;;;;32.01;44.26;99964.13;6315394;20;3514799;-47
2022/07/02 08:14:26;;;;;;;;;16.67;14.33;;;;;31.57;44.45;99965.13;6284254;20;2483597;-47
2022/07/02 08:16:55;;;;;;;;;15.00;13.67;;;;;31.85;44.82;99970.25;6317787;20;3531495;-51
2022/07/02 08:19:23;;;;;;;;;13.00;11.50;;;;;32.19;43.46;99965.25;6314162;20;2786790;-57
2022/07/02 08:21:52;;;;;;;;;13.00;11.50;;;;;31.09;45.43;99963.69;6282299;20;2786088;-53
2022/07/02 08:24:20;;;;;;;;;15.67;14.33;;;;;30.31;47.22;99961.84;6312490;20;3548558;-57
2022/07/02 08:26:49;;;;;;;;;15.33;13.67;;;;;30.48;47.75;99961.38;6284505;20;3537733;-54
2022/07/02 08:29:17;;;;;;;;;13.33;12.33;;;;;31.12;46.40;99956.84;6311633;20;3514818;-53
2022/07/02 08:31:46;;;;;;;;;14.33;13.00;;;;;30.81;46.11;99956.59;6282840;20;3525372;-52
2022/07/02 08:34:15;;;;;;;;;14.50;14.50;;;;;30.50;46.62;99948.16;6310984;20;2811132;-50
2022/07/02 08:36:43;;;;;;;;;14.00;11.67;;;;;31.24;46.84;99947.59;6283440;20;2489961;-59
2022/07/02 08:39:12;;;;;;;;;14.67;14.00;;;;;31.02;45.13;99954.56;6320491;20;3532523;-60
2022/07/02 08:41:44;;;;;;;;;15.00;13.67;;;;;31.52;44.07;99946.38;6322845;20;3536875;-60
2022/07/02 08:44:18;;;;;;;;;17.67;15.00;;;;;30.89;46.45;99954.66;6316975;20;3552384;-52
2022/07/02 08:46:48;;;;;;;;;20.50;17.00;;;;;31.53;45.84;99959.19;6281604;20;2816937;-54
2022/07/02 08:49:21;;;;;;;;;22.33;20.00;;;;;31.36;46.95;99957.97;6290184;20;3575258;-54
2022/07/02 08:54:26;;;;;;;;;19.67;19.67;;;;;30.75;47.68;99949.09;6313873;20;3574429;-54
2022/07/02 08:57:01;;;;;;;;;22.00;18.67;;;;;30.98;47.61;99958.84;6318554;20;3571082;-51
2022/07/02 08:59:32;;;;;;;;;18.00;16.00;;;;;31.45;46.59;99956.69;6318492;20;3563753;-54
2022/07/02 09:02:05;;;;;;;;;17.71;17.71;;;;;31.26;47.35;99955.72;6337464;20;3559590;-55
2022/07/02 09:04:36;;;;;;;;;18.67;17.00;;;;;31.09;47.32;99958.13;6289782;20;3569034;-52
2022/07/02 09:07:07;;;;;;;;;18.00;17.00;;;;;32.00;45.21;99953.28;6285802;20;3557671;-50
2022/07/02 09:09:36;;;;;;;;;16.33;16.33;;;;;31.21;46.97;99955.53;6287976;20;3566928;-57
2022/07/02 09:12:13;;;;;;;;;14.50;14.50;;;;;31.49;46.19;99953.22;6288820;20;2807547;-55
2022/07/02 09:14:44;;;;;;;;;16.67;15.33;;;;;31.83;45.94;99952.94;6291318;20;3555425;-49
2022/07/02 09:17:13;;;;;;;;;16.50;16.50;;;;;32.18;44.88;99956.06;6287357;20;2815899;-57
2022/07/02 09:19:41;;;;;;;;;16.67;16.00;;;;;31.76;45.20;99941.91;6291608;20;3562742;-51
2022/07/02 09:22:10;;;;;;;;;19.33;18.00;;;;;31.40;45.76;99949.00;6288889;20;3563312;-57
2022/07/02 09:24:44;;;;;;;;;15.00;15.00;;;;;31.78;45.84;99947.22;6285443;20;3537792;-57
2022/07/02 09:27:15;;;;;;;;;8.00;6.33;;;;;32.38;43.90;99950.28;6296839;20;2741926;-58
2022/07/02 09:29:54;;;;;;;;;18.33;16.67;;;;;31.88;44.92;99942.00;6319031;20;3551387;-56
2022/07/02 09:32:24;;;;;;;;;18.67;17.33;;;;;32.26;43.53;99946.59;6283208;20;3560796;-54
2022/07/02 09:34:54;;;;;;;;;23.33;18.33;;;;;32.22;44.31;99946.19;6323392;20;3578362;-56
2022/07/02 09:37:25;;;;;;;;;20.00;20.00;;;;;32.56;43.15;99946.69;6283655;20;2846128;-55
2022/07/02 09:39:57;;;;;;;;;11.33;10.33;;;;;32.07;43.72;99943.78;6321365;20;2483604;-57
2022/07/02 09:42:33;;;;;;;;;18.14;16.57;;;;;32.03;42.85;99942.53;6337617;20;3562888;-56
2022/07/02 09:45:06;;;;;;;;;17.67;17.67;;;;;32.51;43.69;99947.38;6288967;20;3556630;-56
2022/07/02 09:47:39;;;;;;;;;18.33;17.33;;;;;32.56;43.84;99958.66;6289195;20;3571243;-55
2022/07/02 09:50:12;;;;;;;;;18.33;16.67;;;;;32.83;42.81;99957.50;6282330;20;2842004;-60
2022/07/02 09:52:57;;;;;;;;;14.67;13.00;;;;;32.48;42.30;99961.75;6318123;20;3509625;-57
2022/07/02 09:55:32;;;;;;;;;13.50;13.50;;;;;32.42;42.23;99953.47;6313737;20;2810688;-56
2022/07/02 09:58:03;;;;;;;;;15.00;15.00;;;;;31.66;43.16;99953.50;6286329;20;2821126;-55
2022/07/02 10:00:44;;;;;;;;;15.00;14.00;;;;;32.58;42.69;99950.09;6286252;20;3539826;-57
2022/07/02 10:03:16;;;;;;;;;14.00;13.00;;;;;32.47;42.33;99964.75;6282608;20;2806563;-53
2022/07/02 10:05:54;;;;;;;;;15.00;15.00;;;;;32.98;41.50;99966.28;6287635;20;3535640;-54
2022/07/02 10:08:24;;;;;;;;;18.00;15.00;;;;;33.05;41.27;99963.44;6289977;20;3543104;-57
2022/07/02 10:10:52;;;;;;;;;14.67;14.67;;;;;32.72;41.46;99959.13;6320068;20;3540995;-52
2022/07/02 10:13:21;;;;;;;;;13.33;12.00;;;;;32.67;41.56;99947.84;6317616;20;3498137;-56
2022/07/02 10:16:04;;;;;;;;;13.00;13.00;;;;;33.10;40.54;99958.00;6316058;20;3527316;-56
2022/07/02 10:18:34;;;;;;;;;14.00;14.00;;;;;33.22;40.24;99950.56;6316580;20;2803479;-47
2022/07/02 10:21:04;;;;;;;;;14.67;14.67;;;;;32.78;40.35;99944.28;6285933;20;3534621;-55
2022/07/02 10:23:34;;;;;;;;;12.67;12.00;;;;;32.85;40.85;99939.47;6314570;20;3531484;-52
2022/07/02 10:26:03;;;;;;;;;11.33;11.33;;;;;32.83;41.26;99936.06;6318724;20;3508566;-57
2022/07/02 10:28:34;;;;;;;;;16.67;16.00;;;;;32.72;41.60;99928.53;6316947;20;2835751;-57
2022/07/02 10:31:06;;;;;;;;;15.33;15.33;;;;;33.11;40.63;99943.88;6321097;20;1911705;-55
2022/07/02 10:33:44;;;;;;;;;15.50;15.50;;;;;33.18;40.04;99939.06;6313545;20;2825240;-58
2022/07/02 10:36:16;;;;;;;;;14.67;13.00;;;;;33.01;40.28;99938.84;6286356;20;3541953;-55
2022/07/02 10:38:58;;;;;;;;;13.33;13.33;;;;;33.09;40.16;99934.06;6285511;20;3516898;-51
2022/07/02 10:41:32;;;;;;;;;14.00;14.00;;;;;33.71;38.98;99934.63;6319833;20;3528377;-52
2022/07/02 10:44:01;;;;;;;;;17.00;15.67;;;;;33.34;39.66;99942.25;6319110;20;3571457;-58
2022/07/02 10:46:36;;;;;;;;;18.00;16.00;;;;;33.11;39.93;99935.50;6281339;20;2831520;-52
2022/07/02 10:49:05;;;;;;;;;18.00;17.00;;;;;33.41;39.30;99941.06;6285982;20;2703471;-56
2022/07/02 10:51:36;;;;;;;;;14.00;14.00;;;;;33.34;39.65;99943.09;6315289;20;3540975;-57
2022/07/02 10:54:08;;;;;;;;;12.67;11.67;;;;;33.13;39.63;99926.94;6318434;20;3504392;-56
2022/07/02 10:56:51;;;;;;;;;13.67;13.67;;;;;33.78;38.80;99921.44;6318108;20;3532566;-55
2022/07/02 10:59:26;;;;;;;;;17.00;14.50;;;;;33.57;38.68;99935.91;6312134;20;2819153;-56
2022/07/02 11:02:09;;;;;;;;;16.00;14.00;;;;;33.66;38.69;99928.91;6284527;20;2812866;-53
2022/07/02 11:04:38;;;;;;;;;14.00;13.33;;;;;33.73;38.85;99929.66;6288784;20;2483594;-58
2022/07/02 11:07:13;;;;;;;;;13.00;12.67;;;;;33.19;39.47;99920.41;6314923;20;3546099;-56
2022/07/02 11:10:07;;;;;;;;;12.67;12.67;;;;;33.04;38.99;99929.19;6321819;20;3511669;-55
2022/07/02 11:13:01;;;;;;;;;12.00;12.00;;;;;33.60;39.32;99927.09;6316658;20;2792045;-57
2022/07/02 11:15:36;;;;;;;;;14.33;12.33;;;;;34.49;36.88;99926.97;6286836;20;3530498;-51
2022/07/02 11:18:08;;;;;;;;;13.00;13.00;;;;;34.49;37.19;99924.16;6317358;20;3528484;-53
2022/07/02 11:20:37;;;;;;;;;13.33;13.00;;;;;34.60;37.22;99928.94;6317105;20;3536712;-56
2022/07/02 11:23:05;;;;;;;;;11.00;11.00;;;;;35.34;36.50;99931.78;6308917;20;2786745;-54
2022/07/02 11:25:34;;;;;;;;;13.00;12.00;;;;;34.03;37.67;99929.53;6314773;20;3502409;-56
2022/07/02 11:28:04;;;;;;;;;11.00;10.33;;;;;33.98;37.42;99931.34;6282648;20;2487823;-51
2022/07/02 11:30:34;;;;;;;;;13.33;12.33;;;;;34.89;36.11;99927.00;6320690;20;3502323;-54